Time;durP1;ratioP1;P1;durP2;ratioP2;P2;SDS_P1;SDS_P2;PMS_P1;PMS_P2;Temp;Humidity;BMP_temperature;BMP_pressure;BME280_temperature;BME280_humidity;BME280_pressure;Samples;Min_cycle;Max_cycle;Signal;HPM_P1;HPM_P2
2021/12/11 00:00:23;;;;;;;3.53;0.70;;;;;;;-1.00;100.00;100433.50;5082848;28;20045;-50
2021/12/11 00:03:12;;;;;;;1.35;0.90;;;;;;;-0.94;100.00;100435.63;5079077;28;20081;-48
2021/12/11 00:05:41;;;;;;;3.83;0.95;;;;;;;-0.90;100.00;100431.84;5077671;28;20036;-51
2021/12/11 00:08:10;;;;;;;3.63;1.55;;;;;;;-0.92;100.00;100434.56;5072743;28;20035;-51
2021/12/11 00:10:40;;;;;;;5.90;1.38;;;;;;;-0.88;100.00;100440.34;5074958;28;20036;-52
2021/12/11 00:13:09;;;;;;;0.85;0.60;;;;;;;-0.92;100.00;100438.94;5070979;28;20139;-51
2021/12/11 00:15:40;;;;;;;1.83;0.47;;;;;;;-0.96;100.00;100442.72;5067900;28;20619;-53
2021/12/11 00:18:21;;;;;;;1.80;0.55;;;;;;;-1.05;100.00;100441.66;5067118;28;20040;-51
2021/12/11 00:20:55;;;;;;;;;;;;;;;-1.15;100.00;100446.72;5069555;28;20045;-52
2021/12/11 00:23:54;;;;;;;2.80;0.30;;;;;;;-1.30;100.00;100447.88;5065501;28;20254;-49
2021/12/11 00:26:30;;;;;;;2.30;0.65;;;;;;;-1.41;100.00;100453.06;5066029;28;20072;-49
2021/12/11 00:28:57;;;;;;;2.60;0.30;;;;;;;-1.48;100.00;100459.66;5064755;28;20028;-54
2021/12/11 00:31:23;;;;;;;4.85;0.47;;;;;;;-1.56;100.00;100463.66;5068226;28;20033;-52
2021/12/11 00:33:50;;;;;;;4.55;1.00;;;;;;;-1.58;100.00;100454.31;5066753;28;20074;-49
2021/12/11 00:36:20;;;;;;;3.53;2.15;;;;;;;-1.39;100.00;100464.19;5065495;28;20035;-47
2021/12/11 00:38:48;;;;;;;12.85;3.55;;;;;;;-0.82;100.00;100472.91;5068066;28;20024;-47
2021/12/11 00:41:16;;;;;;;7.78;2.90;;;;;;;-0.69;100.00;100477.03;5066201;28;20111;-49
2021/12/11 00:43:44;;;;;;;12.48;3.47;;;;;;;-0.55;100.00;100468.16;5069205;28;20488;-48
2021/12/11 00:46:14;;;;;;;14.85;3.80;;;;;;;-0.59;100.00;100478.97;5074491;28;20049;-47
2021/12/11 00:48:40;;;;;;;8.55;0.93;;;;;;;-0.70;100.00;100472.81;5067180;28;20720;-50
2021/12/11 00:51:08;;;;;;;5.53;2.35;;;;;;;-0.77;100.00;100481.19;5067617;28;20206;-49
2021/12/11 00:53:39;;;;;;;7.53;2.33;;;;;;;-0.85;100.00;100473.13;5077871;28;20043;-49
2021/12/11 00:56:22;;;;;;;6.70;1.25;;;;;;;-0.95;100.00;100480.81;5074500;28;20075;-50
2021/12/11 00:58:51;;;;;;;5.75;1.00;;;;;;;-0.94;100.00;100488.50;5071245;28;20036;-51
2021/12/11 01:01:21;;;;;;;4.20;0.68;;;;;;;-0.99;100.00;100487.19;5078711;28;20024;-47
2021/12/11 01:03:54;;;;;;;5.55;1.10;;;;;;;-1.14;100.00;100484.78;5076057;28;20519;-47
2021/12/11 01:06:30;;;;;;;5.95;1.02;;;;;;;-1.28;100.00;100489.41;5074854;28;20068;-50
2021/12/11 01:09:01;;;;;;;7.75;1.63;;;;;;;-1.30;100.00;100494.72;5072744;28;20085;-50
2021/12/11 01:11:33;;;;;;;2.88;0.60;;;;;;;-1.39;100.00;100498.84;5081148;28;20028;-52
2021/12/11 01:14:34;;;;;;;3.80;0.73;;;;;;;-1.36;100.00;100502.97;5072160;28;20063;-52
2021/12/11 01:17:43;;;;;;;3.17;0.43;;;;;;;-1.42;100.00;100511.22;5083574;28;20048;-49
2021/12/11 01:20:44;;;;;;;7.47;0.70;;;;;;;-1.52;100.00;100523.22;5076049;28;20617;-47
2021/12/11 01:23:16;;;;;;;1.73;1.02;;;;;;;-1.52;100.00;100525.84;5069209;28;20052;-47
2021/12/11 01:25:42;;;;;;;0.63;0.25;;;;;;;-1.66;100.00;100525.06;5075206;28;20407;-50
2021/12/11 01:28:08;;;;;;;4.32;1.30;;;;;;;-1.52;100.00;100531.03;5072372;28;20473;-51
2021/12/11 01:30:38;;;;;;;3.40;0.43;;;;;;;-1.55;100.00;100543.34;5072085;28;20054;-50
2021/12/11 01:33:05;;;;;;;4.30;0.43;;;;;;;-1.57;100.00;100549.59;5069147;28;20033;-49
2021/12/11 01:35:31;;;;;;;2.75;0.43;;;;;;;-1.58;100.00;100555.72;5072480;28;20036;-48
2021/12/11 01:38:11;;;;;;;8.77;0.20;;;;;;;-1.65;100.00;100562.28;5074189;28;20036;-51
2021/12/11 01:40:37;;;;;;;5.07;0.50;;;;;;;-1.58;100.00;100559.13;5067721;28;20561;-48
2021/12/11 01:43:06;;;;;;;10.25;0.40;;;;;;;-1.62;100.00;100562.91;5070837;28;20028;-51
2021/12/11 01:45:33;;;;;;;1.85;0.38;;;;;;;-1.62;100.00;100570.72;5076200;28;20111;-47
2021/12/11 01:47:58;;;;;;;4.93;0.40;;;;;;;-1.69;100.00;100577.28;5077876;28;20552;-48
2021/12/11 01:50:41;;;;;;;5.80;0.30;;;;;;;-1.22;100.00;100570.41;5072163;28;20036;-51
2021/12/11 01:53:31;;;;;;;2.40;0.82;;;;;;;-1.04;100.00;100572.59;5075592;28;20544;-51
2021/12/11 01:56:05;;;;;;;1.67;0.30;;;;;;;-1.15;100.00;100573.41;5068767;28;20385;-47
2021/12/11 01:58:40;;;;;;;4.47;2.30;;;;;;;-1.24;100.00;100568.88;5074010;28;20032;-47
2021/12/11 02:01:14;;;;;;;6.97;0.75;;;;;;;-1.05;100.00;100582.19;5070094;28;20093;-48
2021/12/11 02:03:40;;;;;;;3.58;0.45;;;;;;;-1.12;100.00;100586.19;5071704;28;20024;-53
2021/12/11 02:06:07;;;;;;;2.50;0.38;;;;;;;-1.18;100.00;100600.47;5078800;28;20031;-50
2021/12/11 02:08:35;;;;;;;1.55;0.28;;;;;;;-1.28;100.00;100598.66;5079985;28;20024;-51
2021/12/11 02:11:09;;;;;;;1.55;0.22;;;;;;;-1.40;100.00;100595.16;5079161;28;20035;-50
2021/12/11 02:13:59;;;;;;;2.90;0.43;;;;;;;-1.11;100.00;100591.28;5080942;28;20036;-50
2021/12/11 02:16:34;;;;;;;5.53;0.40;;;;;;;-1.02;100.00;100596.75;5083696;28;20032;-49
2021/12/11 02:19:08;;;;;;;1.48;1.08;;;;;;;-1.18;100.00;100603.09;5085034;28;20539;-50
2021/12/11 02:22:09;;;;;;;10.18;2.33;;;;;;;-1.30;100.00;100603.16;5070356;28;20026;-50
2021/12/11 02:24:41;;;;;;;3.13;0.30;;;;;;;-1.49;100.00;100614.06;5041862;28;20039;-48
2021/12/11 02:27:11;;;;;;;0.95;0.50;;;;;;;-1.60;100.00;100615.66;5072162;28;20047;-50
2021/12/11 02:29:41;;;;;;;3.10;0.65;;;;;;;-1.78;100.00;100619.56;5085747;28;20081;-51
2021/12/11 02:32:12;;;;;;;2.10;0.45;;;;;;;-1.86;100.00;100617.50;5079287;28;20036;-47
2021/12/11 02:34:46;;;;;;;5.93;0.57;;;;;;;-1.94;100.00;100618.94;5079018;28;20040;-52
2021/12/11 02:37:12;;;;;;;3.42;0.60;;;;;;;-2.03;100.00;100618.66;5079246;28;20175;-49
2021/12/11 02:39:43;;;;;;;2.97;1.27;;;;;;;-2.08;100.00;100617.31;5073702;28;20111;-47
2021/12/11 02:42:29;;;;;;;6.45;0.63;;;;;;;-2.09;100.00;100631.22;5079486;28;20032;-47
2021/12/11 02:45:04;;;;;;;3.20;0.17;;;;;;;-2.14;100.00;100634.16;5083946;28;20488;-52
2021/12/11 02:47:38;;;;;;;4.55;0.10;;;;;;;-2.16;100.00;100630.84;5081193;28;20515;-47
2021/12/11 02:50:12;;;;;;;0.98;0.30;;;;;;;-2.11;100.00;100628.75;5077182;28;20024;-52
2021/12/11 02:52:48;;;;;;;8.95;0.77;;;;;;;-2.08;100.00;100636.34;5071913;28;20036;-48
2021/12/11 02:55:55;;;;;;;2.70;0.20;;;;;;;-2.02;100.00;100648.91;5083357;28;20039;-49
2021/12/11 02:58:27;;;;;;;2.47;0.10;;;;;;;-1.99;100.00;100647.84;5021040;28;20045;-51
2021/12/11 03:00:58;;;;;;;10.48;1.05;;;;;;;-1.97;100.00;100645.97;5065072;28;20043;-51
2021/12/11 03:03:32;;;;;;;3.85;0.40;;;;;;;-1.90;100.00;100647.22;5083197;28;20063;-47
2021/12/11 03:06:22;;;;;;;3.35;0.52;;;;;;;-1.90;100.00;100649.00;5080200;28;20032;-49
2021/12/11 03:08:50;;;;;;;2.90;0.40;;;;;;;-1.90;100.00;100649.81;5071133;28;20031;-48
2021/12/11 03:11:20;;;;;;;4.28;1.13;;;;;;;-1.87;100.00;100654.81;5081794;28;20031;-47
2021/12/11 03:13:51;;;;;;;1.10;0.25;;;;;;;-1.83;100.00;100639.84;5079497;28;20050;-48
2021/12/11 03:16:20;;;;;;;2.45;0.30;;;;;;;-1.81;100.00;100644.00;5083935;28;20028;-49
2021/12/11 03:18:46;;;;;;;1.35;0.55;;;;;;;-1.80;100.00;100650.84;5071177;28;20526;-49
2021/12/11 03:21:12;;;;;;;7.68;0.43;;;;;;;-1.79;100.00;100654.28;5077481;28;20040;-49
2021/12/11 03:23:38;;;;;;;3.30;0.10;;;;;;;-1.80;100.00;100643.06;5076697;28;20040;-50
2021/12/11 03:26:03;;;;;;;0.43;0.30;;;;;;;-1.79;100.00;100636.06;5081313;28;20043;-47
2021/12/11 03:28:28;;;;;;;2.28;0.35;;;;;;;-1.77;100.00;100636.81;5081739;28;20032;-52
2021/12/11 03:30:59;;;;;;;4.45;0.28;;;;;;;-1.78;100.00;100627.34;5076226;28;20416;-52
2021/12/11 03:33:28;;;;;;;2.30;1.10;;;;;;;-1.82;100.00;100620.69;5072385;28;20070;-54
2021/12/11 03:35:55;;;;;;;1.92;0.32;;;;;;;-1.81;100.00;100623.22;5078964;28;20041;-51
2021/12/11 03:38:22;;;;;;;4.43;1.08;;;;;;;-1.80;100.00;100619.66;5078873;28;20034;-48
2021/12/11 03:40:48;;;;;;;5.68;1.40;;;;;;;-1.75;100.00;100624.53;5076331;28;20522;-51
2021/12/11 03:43:17;;;;;;;6.15;1.30;;;;;;;-1.71;100.00;100640.75;5076007;28;20111;-53
2021/12/11 03:45:46;;;;;;;7.90;2.20;;;;;;;-1.67;100.00;100644.78;5079777;28;20618;-47
2021/12/11 03:48:27;;;;;;;3.50;1.85;;;;;;;-1.73;100.00;100637.41;5071233;28;20035;-49
2021/12/11 03:50:53;;;;;;;0.73;0.65;;;;;;;-1.70;100.00;100629.38;5076439;28;20073;-50
2021/12/11 03:53:18;;;;;;;4.93;0.70;;;;;;;-1.68;100.00;100630.13;5072705;28;20090;-51
2021/12/11 03:55:54;;;;;;;1.17;0.75;;;;;;;-1.66;100.00;100638.66;5070705;28;20115;-50
2021/12/11 03:58:20;;;;;;;1.42;0.55;;;;;;;-1.61;100.00;100642.56;5079319;28;20105;-51
2021/12/11 04:00:59;;;;;;;4.43;0.32;;;;;;;-1.58;100.00;100637.16;5075020;28;20028;-49
2021/12/11 04:03:30;;;;;;;9.18;0.68;;;;;;;-1.54;100.00;100646.41;5076923;28;20115;-49
2021/12/11 04:05:58;;;;;;;4.80;1.05;;;;;;;-1.39;100.00;100652.31;5072598;28;20542;-51
2021/12/11 04:08:28;;;;;;;3.85;0.50;;;;;;;-1.12;100.00;100651.25;5069740;28;20119;-49
2021/12/11 04:10:54;;;;;;;9.73;1.13;;;;;;;-0.66;100.00;100664.31;5071687;28;20491;-50
2021/12/11 04:13:20;;;;;;;2.80;0.65;;;;;;;-0.27;100.00;100670.06;5080108;28;20044;-49
2021/12/11 04:15:49;;;;;;;10.07;0.75;;;;;;;-0.14;100.00;100667.38;5077160;28;20033;-52
2021/12/11 04:18:14;;;;;;;4.10;0.43;;;;;;;-0.27;100.00;100672.69;5082800;28;20035;-50
2021/12/11 04:20:42;;;;;;;2.72;1.05;;;;;;;-0.37;100.00;100666.50;5075057;28;20024;-50
2021/12/11 04:23:11;;;;;;;2.60;0.47;;;;;;;-0.37;100.00;100666.50;5073585;28;20039;-50
2021/12/11 04:25:40;;;;;;;1.35;0.17;;;;;;;-0.46;100.00;100672.44;5085140;28;20031;-52
2021/12/11 04:28:06;;;;;;;16.17;1.17;;;;;;;-0.61;100.00;100673.56;5078111;28;20036;-50
2021/12/11 04:30:32;;;;;;;7.88;0.52;;;;;;;-0.71;100.00;100670.81;5079368;28;20036;-48
2021/12/11 04:32:58;;;;;;;11.05;0.82;;;;;;;-0.60;100.00;100676.03;5084363;28;20473;-51
2021/12/11 04:35:28;;;;;;;2.10;0.30;;;;;;;-0.41;100.00;100685.06;5082989;28;20530;-48
2021/12/11 04:37:54;;;;;;;3.75;0.43;;;;;;;-0.40;100.00;100673.72;5077289;28;20043;-50
2021/12/11 04:40:28;;;;;;;5.05;0.68;;;;;;;-0.50;100.00;100677.00;5077248;28;20036;-52
2021/12/11 04:43:00;;;;;;;5.90;0.30;;;;;;;-0.52;100.00;100662.44;5085200;28;20035;-50
2021/12/11 04:45:49;;;;;;;2.08;0.40;;;;;;;-0.55;100.00;100666.09;5083349;28;20081;-51
2021/12/11 04:48:28;;;;;;;3.33;0.38;;;;;;;-0.63;100.00;100665.03;5072552;28;20123;-52
2021/12/11 04:51:17;;;;;;;0.93;0.20;;;;;;;-0.70;100.00;100670.72;5077311;28;20040;-47
2021/12/11 04:59:29;;;;;;;9.55;0.75;;;;;;;-0.52;100.00;100678.06;5077888;28;20444;-50
2021/12/11 05:02:36;;;;;;;1.45;0.55;;;;;;;-0.48;100.00;100677.75;5076705;28;20426;-53
2021/12/11 05:10:18;;;;;;;5.03;0.68;;;;;;;-0.50;100.00;100697.03;5080018;28;20028;-49
2021/12/11 05:12:48;;;;;;;3.00;0.50;;;;;;;-0.55;100.00;100693.94;5072954;28;20065;-49
2021/12/11 05:15:20;;;;;;;0.75;0.20;;;;;;;-0.62;100.00;100698.78;5078170;28;20041;-53
2021/12/11 05:17:46;;;;;;;5.30;0.40;;;;;;;-0.63;100.00;100706.69;5077564;28;20071;-49
2021/12/11 05:20:16;;;;;;;7.68;0.68;;;;;;;-0.66;100.00;100708.59;5079630;28;20141;-52
2021/12/11 05:22:42;;;;;;;10.32;1.45;;;;;;;-0.69;100.00;100714.03;5086195;28;20404;-50
2021/12/11 05:25:10;;;;;;;3.97;0.38;;;;;;;-0.70;100.00;100716.72;5086212;28;20036;-53
2021/12/11 05:27:36;;;;;;;5.95;0.32;;;;;;;-0.70;100.00;100722.78;5086421;28;20038;-50
2021/12/11 05:30:08;;;;;;;3.78;0.50;;;;;;;-0.68;100.00;100723.47;5074022;28;20385;-49
2021/12/11 05:32:34;;;;;;;6.65;0.32;;;;;;;-0.60;100.00;100737.72;5075534;28;20488;-52
2021/12/11 05:35:00;;;;;;;4.53;0.90;;;;;;;-0.48;100.00;100745.47;5085837;28;20068;-50
2021/12/11 05:37:25;;;;;;;3.40;0.20;;;;;;;-0.32;100.00;100742.56;5083042;28;20461;-52
2021/12/11 05:39:51;;;;;;;8.07;0.70;;;;;;;-0.26;100.00;100742.13;5079659;28;20233;-48
2021/12/11 05:42:16;;;;;;;7.75;0.90;;;;;;;-0.24;100.00;100732.38;5076561;28;20106;-49
2021/12/11 05:44:43;;;;;;;5.15;0.60;;;;;;;-0.15;100.00;100737.88;5072945;28;20085;-49
2021/12/11 05:47:09;;;;;;;6.95;1.45;;;;;;;-0.02;100.00;100731.59;5078507;28;20037;-52
2021/12/11 05:49:35;;;;;;;2.45;0.13;;;;;;;-0.04;100.00;100730.88;5079793;28;20020;-49
2021/12/11 05:52:05;;;;;;;1.00;0.60;;;;;;;-0.11;100.00;100729.69;5074528;28;20458;-51
2021/12/11 05:54:30;;;;;;;6.72;0.88;;;;;;;-0.10;100.00;100731.38;5077593;28;20490;-48
2021/12/11 05:57:03;;;;;;;2.63;1.02;;;;;;;-0.13;100.00;100738.56;5082598;28;20048;-50
2021/12/11 05:59:29;;;;;;;5.70;0.70;;;;;;;-0.16;100.00;100741.41;5074577;28;20052;-49
2021/12/11 06:02:08;;;;;;;4.97;0.73;;;;;;;-0.12;100.00;100738.47;5084282;28;20046;-52
2021/12/11 06:04:36;;;;;;;6.32;1.10;;;;;;;-0.07;100.00;100741.56;5075240;28;20028;-51
2021/12/11 06:07:05;;;;;;;1.95;0.40;;;;;;;0.01;100.00;100755.78;5076279;28;20066;-50
2021/12/11 06:09:30;;;;;;;2.75;0.30;;;;;;;0.05;100.00;100760.63;5073969;28;20072;-48
2021/12/11 06:12:01;;;;;;;1.95;0.13;;;;;;;0.10;100.00;100753.28;5074368;28;20043;-52
2021/12/11 06:14:27;;;;;;;7.13;0.93;;;;;;;0.10;100.00;100766.34;5072514;28;20476;-49
2021/12/11 06:16:55;;;;;;;3.63;0.95;;;;;;;0.11;100.00;100765.41;5078216;28;20036;-52
2021/12/11 06:19:22;;;;;;;2.40;0.22;;;;;;;0.14;100.00;100766.94;5081607;28;20641;-49
2021/12/11 06:21:49;;;;;;;4.50;2.78;;;;;;;0.21;100.00;100782.00;5077585;28;20027;-48
2021/12/11 06:24:15;;;;;;;7.13;1.58;;;;;;;0.26;100.00;100791.25;5072925;28;20119;-47
2021/12/11 06:26:41;;;;;;;7.47;0.35;;;;;;;0.29;100.00;100784.03;5074292;28;20028;-51
2021/12/11 06:29:07;;;;;;;8.65;0.98;;;;;;;0.48;100.00;100796.50;5073931;28;20038;-52
2021/12/11 06:31:32;;;;;;;6.10;0.90;;;;;;;0.57;100.00;100793.19;5075008;28;20061;-47
2021/12/11 06:33:57;;;;;;;1.45;0.60;;;;;;;0.79;100.00;100794.13;5080074;28;20039;-52
2021/12/11 06:36:24;;;;;;;7.38;1.52;;;;;;;0.78;100.00;100801.13;5076866;28;20085;-51
2021/12/11 06:38:53;;;;;;;6.90;0.73;;;;;;;0.65;100.00;100798.63;5070012;28;20020;-48
2021/12/11 06:41:22;;;;;;;1.95;0.25;;;;;;;0.62;100.00;100787.59;5073029;28;20063;-48
2021/12/11 06:43:49;;;;;;;11.93;0.88;;;;;;;0.53;100.00;100791.75;5073607;28;20028;-51
2021/12/11 06:46:15;;;;;;;1.00;0.20;;;;;;;0.45;100.00;100781.06;5070971;28;20410;-52
2021/12/11 06:48:40;;;;;;;4.57;0.70;;;;;;;0.38;100.00;100774.66;5074335;28;20032;-49
2021/12/11 06:51:06;;;;;;;5.47;1.27;;;;;;;0.34;100.00;100784.50;5074085;28;20467;-49
2021/12/11 06:53:38;;;;;;;7.63;1.52;;;;;;;0.30;100.00;100783.06;5068752;28;20083;-51
2021/12/11 06:56:06;;;;;;;5.30;0.50;;;;;;;0.26;100.00;100783.41;5069705;28;20039;-51
2021/12/11 06:58:32;;;;;;;1.65;0.52;;;;;;;0.31;100.00;100791.72;5070044;28;20500;-49
2021/12/11 07:00:58;;;;;;;1.05;0.10;;;;;;;0.26;100.00;100794.72;5072947;28;20094;-52
2021/12/11 07:03:24;;;;;;;4.90;1.42;;;;;;;0.24;100.00;100808.81;5078179;28;20470;-52
2021/12/11 07:05:50;;;;;;;1.55;0.60;;;;;;;0.20;100.00;100803.81;5073168;28;20052;-53
2021/12/11 07:08:17;;;;;;;1.02;0.30;;;;;;;0.22;100.00;100811.53;5071131;28;20110;-52
2021/12/11 07:10:43;;;;;;;3.60;0.98;;;;;;;0.23;100.00;100815.78;5068375;28;20499;-51
2021/12/11 07:13:10;;;;;;;8.07;0.45;;;;;;;0.20;100.00;100818.63;5066150;28;20461;-54
2021/12/11 07:15:35;;;;;;;4.00;0.45;;;;;;;0.19;100.00;100812.59;5069214;28;20039;-52
2021/12/11 07:18:02;;;;;;;4.32;1.08;;;;;;;0.15;100.00;100808.53;5075148;28;20427;-48
2021/12/11 07:20:27;;;;;;;6.95;3.10;;;;;;;0.11;100.00;100812.34;5070615;28;20059;-47
2021/12/11 07:22:54;;;;;;;2.03;1.15;;;;;;;0.12;100.00;100820.97;5066523;28;20071;-52
2021/12/11 07:25:26;;;;;;;5.20;1.02;;;;;;;0.12;100.00;100823.59;5068311;28;20465;-48
2021/12/11 07:27:53;;;;;;;1.23;0.10;;;;;;;0.05;100.00;100823.22;5069029;28;20077;-50
2021/12/11 07:30:19;;;;;;;4.80;0.90;;;;;;;0.02;100.00;100826.06;5074469;28;20028;-50
2021/12/11 07:32:45;;;;;;;6.35;0.65;;;;;;;0.05;100.00;100827.59;5079463;28;20038;-50
2021/12/11 07:35:10;;;;;;;2.28;0.70;;;;;;;0.05;100.00;100827.59;5074490;28;20507;-50
2021/12/11 07:37:37;;;;;;;2.20;0.30;;;;;;;0.02;100.00;100828.66;5081958;28;20162;-52
2021/12/11 07:40:08;;;;;;;3.03;0.70;;;;;;;0.01;100.00;100834.84;5077073;28;20032;-49
2021/12/11 07:42:35;;;;;;;2.00;0.50;;;;;;;-0.04;100.00;100839.56;5078573;28;20020;-53
2021/12/11 07:45:00;;;;;;;1.00;0.17;;;;;;;-0.14;100.00;100843.78;5079249;28;20689;-50
2021/12/11 07:47:26;;;;;;;3.80;1.38;;;;;;;-0.24;100.00;100843.63;5072790;28;20033;-51
2021/12/11 07:49:51;;;;;;;5.13;0.80;;;;;;;-0.32;100.00;100838.97;5076864;28;20036;-48
2021/12/11 07:52:16;;;;;;;2.83;0.43;;;;;;;-0.37;100.00;100835.88;5071607;28;20427;-47
2021/12/11 07:54:42;;;;;;;4.68;0.43;;;;;;;-0.42;100.00;100829.34;5075272;28;20032;-50
2021/12/11 07:57:07;;;;;;;0.77;0.25;;;;;;;-0.43;100.00;100828.50;5072542;28;20047;-50
2021/12/11 07:59:33;;;;;;;1.48;0.22;;;;;;;-0.41;100.00;100834.44;5077208;28;20028;-52
2021/12/11 08:01:58;;;;;;;4.82;0.68;;;;;;;-0.40;100.00;100830.06;5079283;28;20075;-47
2021/12/11 08:04:24;;;;;;;3.80;1.15;;;;;;;-0.41;100.00;100836.19;5074899;28;20082;-52
2021/12/11 08:06:50;;;;;;;2.30;0.30;;;;;;;-0.36;100.00;100829.72;5075243;28;20024;-50
2021/12/11 08:09:19;;;;;;;4.45;0.82;;;;;;;-0.37;100.00;100827.22;5071857;28;20099;-49
2021/12/11 08:11:47;;;;;;;4.10;1.00;;;;;;;-0.33;100.00;100834.72;5075506;28;20047;-49
2021/12/11 08:14:13;;;;;;;12.43;1.40;;;;;;;-0.20;100.00;100849.47;5075426;28;20040;-49
2021/12/11 08:16:47;;;;;;;3.90;1.20;;;;;;;-0.13;100.00;100856.72;5082482;28;20127;-53
2021/12/11 08:19:19;;;;;;;3.28;0.77;;;;;;;-0.05;100.00;100856.16;5079556;28;20028;-49
2021/12/11 08:21:47;;;;;;;3.40;0.93;;;;;;;0.09;100.00;100855.94;5074108;28;20027;-49
2021/12/11 08:24:12;;;;;;;6.57;1.10;;;;;;;0.23;100.00;100854.91;5073363;28;20161;-50
2021/12/11 08:26:40;;;;;;;5.30;2.50;;;;;;;0.35;100.00;100856.59;5072129;28;20031;-48
2021/12/11 08:29:08;;;;;;;10.15;1.75;;;;;;;0.44;100.00;100870.75;5076389;28;20529;-49
2021/12/11 08:31:34;;;;;;;4.60;1.40;;;;;;;0.50;100.00;100872.88;5075381;28;20027;-51
2021/12/11 08:34:00;;;;;;;4.82;1.13;;;;;;;0.59;100.00;100868.72;5084558;28;20032;-48
2021/12/11 08:36:25;;;;;;;6.63;1.88;;;;;;;0.65;100.00;100879.53;5076689;28;20412;-51
2021/12/11 08:38:51;;;;;;;4.07;0.95;;;;;;;0.75;100.00;100895.34;5078807;28;20024;-52
2021/12/11 08:41:22;;;;;;;5.65;1.98;;;;;;;0.80;100.00;100893.22;5077154;28;20036;-52
2021/12/11 08:43:56;;;;;;;3.53;1.67;;;;;;;0.86;100.00;100892.72;5071520;28;20476;-54
2021/12/11 08:46:27;;;;;;;2.50;1.50;;;;;;;0.88;100.00;100890.00;5071562;28;20102;-50
2021/12/11 08:48:59;;;;;;;4.90;1.30;;;;;;;0.90;100.00;100882.88;5069728;28;20032;-51
2021/12/11 08:51:33;;;;;;;3.85;2.15;;;;;;;1.01;100.00;100893.31;5070161;28;20408;-50
2021/12/11 08:53:59;;;;;;;3.45;1.23;;;;;;;1.07;100.00;100899.84;5073547;28;20404;-53
2021/12/11 08:56:25;;;;;;;6.57;1.63;;;;;;;1.09;100.00;100892.72;5107349;27;20029;-54
2021/12/11 08:58:53;;;;;;;8.10;2.10;;;;;;;1.16;100.00;100898.28;5074089;28;20032;-52
2021/12/11 09:01:33;;;;;;;4.50;1.30;;;;;;;1.20;100.00;100905.78;5071892;28;20032;-50
2021/12/11 09:04:15;;;;;;;12.80;2.20;;;;;;;1.27;100.00;100914.81;5080488;28;20032;-48
2021/12/11 09:06:46;;;;;;;5.28;2.13;;;;;;;1.32;100.00;100922.28;5073288;28;20096;-48
2021/12/11 09:09:18;;;;;;;10.95;1.50;;;;;;;1.35;100.00;100919.44;5078609;28;20024;-49
2021/12/11 09:11:57;;;;;;;6.68;1.83;;;;;;;1.43;100.00;100916.22;5082462;28;20043;-51
2021/12/11 09:14:25;;;;;;;3.03;0.63;;;;;;;1.50;100.00;100926.06;5080981;28;20025;-51
2021/12/11 09:17:00;;;;;;;2.40;1.88;;;;;;;1.61;100.00;100927.00;5071236;28;20075;-49
2021/12/11 09:19:40;;;;;;;4.63;0.77;;;;;;;1.70;100.00;100934.09;5086664;28;20035;-51
2021/12/11 09:22:17;;;;;;;4.28;1.00;;;;;;;1.76;100.00;100933.63;5074565;28;20151;-52
2021/12/11 09:24:51;;;;;;;3.05;1.35;;;;;;;1.82;100.00;100927.88;5073121;28;20655;-49
2021/12/11 09:27:37;;;;;;;5.30;1.10;;;;;;;1.94;100.00;100931.31;5071848;28;20033;-51
2021/12/11 09:30:16;;;;;;;7.45;2.20;;;;;;;2.03;100.00;100930.53;5072736;28;20424;-53
2021/12/11 09:32:54;;;;;;;4.50;2.08;;;;;;;2.13;100.00;100936.69;5074721;28;20620;-50
2021/12/11 09:35:27;;;;;;;2.67;1.05;;;;;;;2.18;100.00;100939.75;5073200;28;20032;-52
2021/12/11 09:38:16;;;;;;;3.88;1.45;;;;;;;2.24;100.00;100942.84;5071534;28;20516;-48
2021/12/11 09:40:41;;;;;;;10.27;2.28;;;;;;;2.28;100.00;100934.59;5072796;28;20040;-49
2021/12/11 09:43:06;;;;;;;3.80;1.83;;;;;;;2.34;100.00;100941.94;5082687;28;20385;-54
2021/12/11 09:45:38;;;;;;;4.55;1.83;;;;;;;2.44;100.00;100936.78;5068482;28;20060;-51
2021/12/11 09:48:17;;;;;;;4.60;2.17;;;;;;;2.55;100.00;100928.88;5077604;28;20058;-52
2021/12/11 09:50:52;;;;;;;6.22;1.83;;;;;;;2.61;100.00;100935.41;5075366;28;20376;-50
2021/12/11 09:53:21;;;;;;;6.18;2.25;;;;;;;2.65;100.00;100931.56;5084285;28;20090;-50
2021/12/11 09:55:48;;;;;;;6.03;1.85;;;;;;;2.71;100.00;100936.28;5078800;28;20565;-51
2021/12/11 09:58:19;;;;;;;4.95;2.47;;;;;;;2.79;100.00;100936.47;5077576;28;20207;-52
2021/12/11 10:01:02;;;;;;;11.77;2.80;;;;;;;2.89;100.00;100948.78;5070935;28;20032;-50
2021/12/11 10:03:33;;;;;;;4.22;2.05;;;;;;;3.00;100.00;100948.72;5072940;28;20028;-52
2021/12/11 10:06:25;;;;;;;3.60;1.73;;;;;;;3.12;100.00;100960.75;5071902;28;20043;-49
2021/12/11 10:09:07;;;;;;;9.32;1.50;;;;;;;3.25;100.00;100956.16;5071048;28;20073;-50
2021/12/11 10:11:32;;;;;;;3.65;1.00;;;;;;;3.41;100.00;100955.66;5081741;28;20024;-50
2021/12/11 10:14:09;;;;;;;10.23;0.95;;;;;;;3.56;100.00;100955.25;5074311;28;20067;-52
2021/12/11 10:16:39;;;;;;;5.95;1.48;;;;;;;3.62;100.00;100959.97;5079116;28;20038;-52
2021/12/11 10:19:06;;;;;;;2.80;0.50;;;;;;;3.66;100.00;100954.31;5071594;28;20040;-48
2021/12/11 10:21:36;;;;;;;4.57;0.80;;;;;;;3.67;100.00;100966.47;5074919;28;20024;-51
2021/12/11 10:24:09;;;;;;;7.13;1.05;;;;;;;3.64;100.00;100969.38;5079206;28;20115;-53
2021/12/11 10:26:35;;;;;;;4.97;1.98;;;;;;;3.55;100.00;100967.53;5078695;28;20120;-50
2021/12/11 10:29:05;;;;;;;2.75;0.43;;;;;;;3.54;100.00;100971.16;5077420;28;20424;-47
2021/12/11 10:31:36;;;;;;;13.05;1.50;;;;;;;3.57;100.00;100964.81;5079784;28;20055;-53
2021/12/11 10:34:07;;;;;;;3.65;1.55;;;;;;;3.53;100.00;100964.22;5078663;28;20080;-50
2021/12/11 10:36:35;;;;;;;3.33;0.98;;;;;;;3.57;100.00;100965.63;5079531;28;20027;-50
2021/12/11 10:39:04;;;;;;;3.60;0.75;;;;;;;3.63;100.00;100965.06;5076499;28;20070;-50
2021/12/11 10:41:30;;;;;;;2.88;0.45;;;;;;;3.79;100.00;100969.81;5069734;28;20529;-51
2021/12/11 10:44:07;;;;;;;10.63;1.33;;;;;;;3.91;100.00;100975.78;5074469;28;20032;-50
2021/12/11 10:46:40;;;;;;;8.05;1.20;;;;;;;3.98;100.00;100970.84;5070424;28;20084;-52
2021/12/11 10:49:08;;;;;;;14.68;1.73;;;;;;;4.02;100.00;100964.31;5068835;28;20040;-51
2021/12/11 10:51:44;;;;;;;6.63;1.23;;;;;;;4.05;100.00;100950.94;5108409;27;20025;-51
2021/12/11 10:54:12;;;;;;;10.90;4.47;;;;;;;4.06;100.00;100950.81;5071013;28;20468;-48
2021/12/11 10:56:38;;;;;;;4.55;2.03;;;;;;;4.09;100.00;100950.53;5068989;28;20114;-50
2021/12/11 10:59:28;;;;;;;14.90;1.35;;;;;;;4.11;100.00;100956.47;5076089;28;20027;-56
2021/12/11 11:01:59;;;;;;;7.18;1.17;;;;;;;4.13;100.00;100951.91;5076781;28;20151;-53
2021/12/11 11:04:30;;;;;;;5.40;1.90;;;;;;;4.19;100.00;100957.59;5074359;28;20067;-50
2021/12/11 11:06:56;;;;;;;6.35;2.22;;;;;;;4.27;100.00;100960.34;5082201;28;20514;-53
2021/12/11 11:09:23;;;;;;;21.35;3.00;;;;;;;4.35;100.00;100958.69;5075462;28;20042;-52
2021/12/11 11:11:51;;;;;;;2.60;1.45;;;;;;;4.44;100.00;100970.16;5074128;28;20025;-52
2021/12/11 11:14:17;;;;;;;4.88;1.73;;;;;;;4.51;100.00;100984.38;5074498;28;20024;-50
2021/12/11 11:16:53;;;;;;;4.75;2.13;;;;;;;4.56;100.00;100987.41;5108305;27;20060;-49
2021/12/11 11:19:23;;;;;;;4.55;1.63;;;;;;;4.59;100.00;100989.78;5065641;28;20162;-51
2021/12/11 11:21:56;;;;;;;7.45;2.17;;;;;;;4.63;100.00;101000.81;5076781;28;20031;-53
2021/12/11 11:24:23;;;;;;;6.22;1.45;;;;;;;4.62;100.00;100991.28;5067938;28;20055;-50
2021/12/11 11:26:49;;;;;;;7.70;3.65;;;;;;;4.63;100.00;100981.63;5069392;28;20024;-53
2021/12/11 11:29:20;;;;;;;15.60;3.22;;;;;;;4.65;100.00;100988.38;5073352;28;20035;-48
2021/12/11 11:31:50;;;;;;;14.40;3.13;;;;;;;4.69;100.00;100986.28;5072416;28;20027;-51
2021/12/11 11:34:18;;;;;;;21.02;2.53;;;;;;;4.70;100.00;100972.19;5081689;28;20058;-49
2021/12/11 11:36:45;;;;;;;9.73;1.45;;;;;;;4.74;100.00;100970.94;5077298;28;20415;-54
2021/12/11 11:39:13;;;;;;;12.55;2.78;;;;;;;4.78;100.00;100961.81;5080940;28;20520;-53
2021/12/11 11:41:46;;;;;;;7.72;1.25;;;;;;;4.79;100.00;100958.22;5079151;28;20290;-49
2021/12/11 11:44:13;;;;;;;4.10;1.38;;;;;;;4.81;100.00;100951.03;5079744;28;20542;-50
2021/12/11 11:46:39;;;;;;;7.57;2.78;;;;;;;4.80;100.00;100950.19;5072925;28;20034;-52